createdAt,value
2018-06-29T00:00:26.745Z,8.50
2018-06-29T00:02:54.871Z,9.10
2018-06-29T00:05:22.995Z,9.70
2018-06-29T00:07:51.154Z,7.83
2018-06-29T00:10:22.726Z,8.27
2018-06-29T00:12:51.084Z,8.73
2018-06-29T00:15:19.417Z,8.77
2018-06-29T00:17:47.549Z,8.47
2018-06-29T00:20:15.658Z,8.43
2018-06-29T00:22:43.778Z,9.47
2018-06-29T00:25:11.887Z,7.90
2018-06-29T00:27:39.983Z,8.93
2018-06-29T00:30:08.135Z,9.50
2018-06-29T00:32:36.334Z,8.80
2018-06-29T00:35:04.506Z,8.90
2018-06-29T00:37:32.654Z,8.97
2018-06-29T00:40:00.766Z,9.00
2018-06-29T00:42:28.920Z,8.97
2018-06-29T00:44:57.055Z,9.27
2018-06-29T00:47:25.191Z,9.00
2018-06-29T00:49:53.306Z,7.47
2018-06-29T00:52:21.431Z,8.43
2018-06-29T00:54:49.533Z,8.73
2018-06-29T00:57:17.662Z,8.70
2018-06-29T00:59:45.769Z,8.57
2018-06-29T01:02:13.893Z,9.77
2018-06-29T01:04:42.020Z,9.97
2018-06-29T01:07:10.150Z,9.60
2018-06-29T01:09:38.281Z,10.00
2018-06-29T01:12:06.505Z,9.27
2018-06-29T01:14:34.612Z,9.20
2018-06-29T01:17:02.755Z,10.50
2018-06-29T01:19:30.871Z,10.40
2018-06-29T01:21:59.021Z,9.97
2018-06-29T01:24:27.162Z,10.57
2018-06-29T01:26:55.930Z,10.67
2018-06-29T01:29:24.045Z,9.80
2018-06-29T01:31:52.165Z,9.03
2018-06-29T01:34:20.301Z,10.43
2018-06-29T01:36:48.424Z,10.13
2018-06-29T01:39:16.569Z,10.37
2018-06-29T01:44:37.722Z,10.33
2018-06-29T01:47:05.898Z,9.60
2018-06-29T01:49:34.049Z,10.93
2018-06-29T01:52:02.221Z,10.07
2018-06-29T01:54:30.364Z,9.80
2018-06-29T01:56:58.547Z,9.70
2018-06-29T01:59:26.851Z,10.33
2018-06-29T02:01:55.038Z,9.90
2018-06-29T02:04:23.166Z,9.23
2018-06-29T02:06:51.277Z,10.07
2018-06-29T02:09:19.425Z,8.10
2018-06-29T02:11:48.581Z,9.53
2018-06-29T02:14:16.701Z,9.27
2018-06-29T02:16:44.852Z,9.27
2018-06-29T02:19:13.017Z,9.30
2018-06-29T02:21:41.164Z,8.90
2018-06-29T02:24:09.294Z,9.40
2018-06-29T02:26:37.462Z,10.13
2018-06-29T02:29:05.589Z,9.13
2018-06-29T02:31:33.718Z,9.83
2018-06-29T02:34:01.845Z,10.43
2018-06-29T02:36:30.179Z,10.87
2018-06-29T02:38:58.298Z,10.97
2018-06-29T02:41:26.453Z,11.17
2018-06-29T02:43:54.593Z,9.40
2018-06-29T02:46:22.722Z,10.00
2018-06-29T02:48:50.869Z,10.10
2018-06-29T02:51:19.019Z,10.40
2018-06-29T02:53:47.161Z,11.40
2018-06-29T02:56:15.329Z,10.87
2018-06-29T02:58:43.507Z,8.97
2018-06-29T03:01:11.629Z,8.93
2018-06-29T03:03:39.748Z,8.93
2018-06-29T03:06:07.866Z,9.37
2018-06-29T03:08:36.027Z,9.17
2018-06-29T03:11:04.168Z,9.93
2018-06-29T03:13:32.291Z,9.27
2018-06-29T03:16:00.442Z,10.77
2018-06-29T03:18:28.594Z,10.47
2018-06-29T03:20:56.718Z,10.67
2018-06-29T03:23:24.869Z,10.30
2018-06-29T03:25:53.019Z,10.93
2018-06-29T03:28:21.146Z,10.30
2018-06-29T03:30:49.270Z,10.80
2018-06-29T03:33:17.402Z,10.27
2018-06-29T03:35:45.604Z,10.50
2018-06-29T03:38:13.775Z,11.20
2018-06-29T03:40:41.981Z,10.43
2018-06-29T03:43:10.143Z,9.07
2018-06-29T03:45:38.302Z,9.27
2018-06-29T03:48:06.441Z,9.90
2018-06-29T03:50:34.539Z,9.77
2018-06-29T03:53:02.722Z,10.73
2018-06-29T03:55:30.898Z,11.07
2018-06-29T03:57:59.027Z,9.70
2018-06-29T04:00:27.139Z,9.60
2018-06-29T04:02:55.271Z,9.77
2018-06-29T04:05:23.421Z,9.47
2018-06-29T04:07:51.558Z,9.97
2018-06-29T04:10:19.890Z,10.80
2018-06-29T04:12:48.062Z,10.17
2018-06-29T04:15:16.177Z,10.80
2018-06-29T04:17:44.295Z,10.90
2018-06-29T04:20:12.452Z,9.70
2018-06-29T04:22:40.562Z,10.20
2018-06-29T04:25:08.696Z,11.20
2018-06-29T04:27:36.858Z,11.13
2018-06-29T04:30:05.226Z,9.33
2018-06-29T04:32:33.382Z,11.70
2018-06-29T04:35:01.527Z,10.70
2018-06-29T04:37:30.190Z,10.33
2018-06-29T04:39:58.437Z,8.27
2018-06-29T04:42:26.724Z,9.60
2018-06-29T04:44:54.871Z,8.60
2018-06-29T04:47:23.068Z,10.40
2018-06-29T04:49:51.269Z,11.27
2018-06-29T04:52:19.510Z,9.83
2018-06-29T04:54:47.650Z,10.07
2018-06-29T04:57:15.860Z,12.27
2018-06-29T04:59:44.071Z,10.43
2018-06-29T05:02:12.757Z,11.07
2018-06-29T05:04:41.292Z,10.63
2018-06-29T05:07:09.439Z,10.47
2018-06-29T05:09:37.567Z,11.33
2018-06-29T05:12:05.844Z,10.30
2018-06-29T05:14:34.077Z,10.43
2018-06-29T05:17:02.241Z,9.40
2018-06-29T05:19:30.508Z,10.50
2018-06-29T05:21:58.889Z,11.27
2018-06-29T05:24:27.047Z,10.60
2018-06-29T05:26:55.195Z,9.67
2018-06-29T05:29:23.334Z,10.57
2018-06-29T05:31:51.458Z,10.50
2018-06-29T05:34:19.555Z,11.20
2018-06-29T05:36:47.695Z,11.10
2018-06-29T05:39:15.821Z,10.07
2018-06-29T05:41:44.005Z,12.00
2018-06-29T05:44:12.106Z,10.70
2018-06-29T05:46:40.243Z,11.47
2018-06-29T05:49:09.083Z,11.23
2018-06-29T05:51:37.613Z,10.40
2018-06-29T05:54:05.908Z,10.57
2018-06-29T05:56:34.085Z,11.17
2018-06-29T05:59:02.247Z,10.00
2018-06-29T06:01:30.387Z,10.43
2018-06-29T06:03:58.555Z,11.27
2018-06-29T06:06:26.684Z,10.70
2018-06-29T06:08:54.870Z,10.60
2018-06-29T06:11:22.993Z,9.40
2018-06-29T06:13:56.724Z,10.50
2018-06-29T06:16:25.267Z,10.20
2018-06-29T06:21:02.991Z,9.23
2018-06-29T06:23:31.109Z,8.50
2018-06-29T06:25:59.254Z,9.20
2018-06-29T06:28:27.397Z,9.20
2018-06-29T06:30:55.510Z,8.50
2018-06-29T06:33:23.667Z,9.73
2018-06-29T06:35:51.811Z,9.27
2018-06-29T06:38:19.906Z,8.93
2018-06-29T06:40:48.022Z,8.90
2018-06-29T06:43:16.171Z,8.70
2018-06-29T06:45:44.303Z,8.73
2018-06-29T06:48:12.423Z,8.60
2018-06-29T06:50:40.530Z,8.47
2018-06-29T06:53:08.653Z,9.07
2018-06-29T06:55:36.775Z,8.63
2018-06-29T06:58:04.940Z,8.70
2018-06-29T07:00:33.062Z,9.57
2018-06-29T07:03:01.199Z,9.67
2018-06-29T07:05:29.301Z,9.27
2018-06-29T07:07:58.252Z,9.33
2018-06-29T07:10:26.395Z,9.23
2018-06-29T07:12:54.543Z,10.33
2018-06-29T07:15:22.677Z,9.30
2018-06-29T07:17:50.862Z,7.47
2018-06-29T07:20:19.010Z,10.53
2018-06-29T07:22:47.192Z,9.50
2018-06-29T07:25:15.346Z,9.53
2018-06-29T07:27:43.504Z,8.57
2018-06-29T07:30:11.625Z,8.53
2018-06-29T07:32:42.613Z,9.07
2018-06-29T07:35:11.659Z,8.80
2018-06-29T07:37:39.783Z,8.43
2018-06-29T07:40:07.919Z,7.33
2018-06-29T07:42:36.058Z,8.27
2018-06-29T07:45:04.402Z,6.90
2018-06-29T07:47:32.571Z,8.07
2018-06-29T07:50:00.703Z,8.30
2018-06-29T07:52:28.841Z,7.90
2018-06-29T07:54:56.979Z,7.90
2018-06-29T07:57:25.113Z,7.60
2018-06-29T07:59:53.229Z,7.60
2018-06-29T08:02:21.383Z,7.83
2018-06-29T08:04:49.490Z,7.17
2018-06-29T08:07:17.619Z,7.20
2018-06-29T08:09:45.753Z,7.47
2018-06-29T08:12:13.865Z,7.00
2018-06-29T08:14:41.983Z,6.67
2018-06-29T08:17:10.139Z,6.60
2018-06-29T08:19:38.259Z,6.93
2018-06-29T08:22:06.578Z,6.47
2018-06-29T08:24:35.619Z,7.60
2018-06-29T08:27:03.748Z,6.97
2018-06-29T08:29:31.890Z,6.10
2018-06-29T08:31:59.998Z,7.23
2018-06-29T08:34:28.139Z,6.83
2018-06-29T08:36:56.275Z,6.47
2018-06-29T08:39:24.423Z,6.43
2018-06-29T08:41:52.799Z,7.10
2018-06-29T08:44:20.969Z,7.67
2018-06-29T08:46:49.158Z,7.57
2018-06-29T08:49:17.211Z,7.10
2018-06-29T08:51:45.323Z,7.33
2018-06-29T08:54:13.455Z,7.60
2018-06-29T08:56:41.627Z,7.03
2018-06-29T08:59:09.763Z,7.40
2018-06-29T09:01:37.867Z,7.17
2018-06-29T09:04:06.039Z,8.07
2018-06-29T09:06:34.153Z,8.03
2018-06-29T09:09:02.454Z,7.17
2018-06-29T09:11:30.564Z,7.10
2018-06-29T09:13:58.697Z,6.77
2018-06-29T09:16:26.826Z,6.43
2018-06-29T09:18:54.965Z,6.23
2018-06-29T09:21:23.086Z,6.90
2018-06-29T09:23:51.219Z,6.17
2018-06-29T09:26:19.352Z,6.00
2018-06-29T09:28:47.449Z,6.28
2018-06-29T09:31:15.588Z,6.47
2018-06-29T09:33:43.683Z,6.40
2018-06-29T09:36:11.883Z,6.12
2018-06-29T09:38:40.007Z,7.15
2018-06-29T09:41:08.195Z,6.03
2018-06-29T09:43:36.313Z,6.55
2018-06-29T09:46:04.467Z,6.12
2018-06-29T09:48:32.834Z,6.78
2018-06-29T09:51:00.946Z,6.47
2018-06-29T09:53:29.061Z,6.67
2018-06-29T09:55:57.195Z,7.05
2018-06-29T09:58:25.337Z,6.60
2018-06-29T10:00:55.415Z,7.20
2018-06-29T10:03:21.590Z,7.70
2018-06-29T10:05:49.719Z,7.28
2018-06-29T10:08:17.886Z,8.25
2018-06-29T10:10:45.994Z,7.55
2018-06-29T10:13:14.097Z,7.03
2018-06-29T10:15:42.488Z,7.22
2018-06-29T10:18:10.598Z,7.78
2018-06-29T10:20:38.713Z,7.33
2018-06-29T10:23:06.862Z,7.40
2018-06-29T10:25:35.055Z,6.50
2018-06-29T10:28:03.110Z,7.35
2018-06-29T10:30:31.205Z,7.70
2018-06-29T10:32:59.331Z,7.75
2018-06-29T10:35:27.443Z,7.55
2018-06-29T10:37:55.552Z,7.80
2018-06-29T10:40:23.676Z,7.83
2018-06-29T10:42:51.826Z,7.75
2018-06-29T10:45:20.029Z,7.37
2018-06-29T10:47:48.163Z,7.55
2018-06-29T10:50:16.300Z,7.12
2018-06-29T10:52:44.459Z,7.50
2018-06-29T10:55:12.562Z,7.20
2018-06-29T10:57:40.725Z,8.03
2018-06-29T11:00:08.844Z,6.70
2018-06-29T11:02:37.507Z,6.58
2018-06-29T11:05:05.670Z,6.90
2018-06-29T11:07:33.926Z,6.90
2018-06-29T11:10:02.913Z,7.28
2018-06-29T11:12:31.537Z,7.15
2018-06-29T11:14:59.711Z,6.92
2018-06-29T11:17:28.106Z,7.33
2018-06-29T11:19:56.369Z,8.13
2018-06-29T11:22:24.719Z,7.25
2018-06-29T11:24:52.935Z,6.85
2018-06-29T11:27:21.083Z,6.35
2018-06-29T11:29:55.530Z,7.03
2018-06-29T11:32:23.695Z,6.90
2018-06-29T11:34:51.833Z,6.45
2018-06-29T11:37:19.966Z,6.83
2018-06-29T11:39:48.116Z,6.65
2018-06-29T11:42:16.302Z,6.62
2018-06-29T11:44:44.448Z,6.47
2018-06-29T11:47:12.623Z,6.15
2018-06-29T11:49:40.792Z,6.25
2018-06-29T11:52:09.026Z,6.35
2018-06-29T11:54:37.146Z,6.45
2018-06-29T11:57:05.565Z,6.50
2018-06-29T12:00:36.282Z,6.00
2018-06-29T12:03:04.438Z,6.80
2018-06-29T12:05:32.578Z,6.10
2018-06-29T12:08:00.689Z,5.75
2018-06-29T12:10:28.809Z,6.90
2018-06-29T12:12:57.039Z,6.37
2018-06-29T12:15:25.209Z,6.90
2018-06-29T12:17:55.234Z,6.85
2018-06-29T12:20:23.435Z,6.55
2018-06-29T12:22:51.967Z,6.20
2018-06-29T12:25:20.328Z,6.22
2018-06-29T12:27:48.700Z,6.10
2018-06-29T12:30:17.039Z,6.35
2018-06-29T12:32:45.244Z,5.97
2018-06-29T12:35:13.570Z,6.62
2018-06-29T12:37:41.980Z,6.08
2018-06-29T12:40:10.289Z,6.28
2018-06-29T12:42:38.528Z,6.40
2018-06-29T12:45:06.807Z,6.15
2018-06-29T12:47:35.051Z,6.03
2018-06-29T12:50:03.381Z,6.67
2018-06-29T12:52:31.724Z,6.10
2018-06-29T12:55:00.083Z,5.75
2018-06-29T12:57:28.066Z,5.72
2018-06-29T12:59:56.275Z,6.25
2018-06-29T13:02:24.412Z,5.97
2018-06-29T13:04:53.785Z,5.70
2018-06-29T13:07:22.131Z,5.62
2018-06-29T13:09:50.535Z,5.92
2018-06-29T13:12:18.846Z,5.50
2018-06-29T13:14:47.186Z,5.80
2018-06-29T13:17:15.382Z,5.97
2018-06-29T13:19:43.832Z,5.50
2018-06-29T13:22:12.212Z,5.50
2018-06-29T13:24:40.393Z,6.10
2018-06-29T13:27:08.694Z,5.40
2018-06-29T13:29:37.009Z,6.00
2018-06-29T13:32:05.431Z,5.97
2018-06-29T13:34:33.818Z,5.50
2018-06-29T13:37:02.084Z,5.83
2018-06-29T13:39:30.330Z,5.65
2018-06-29T13:41:58.571Z,5.60
2018-06-29T13:44:27.035Z,5.08
2018-06-29T13:46:55.148Z,5.55
2018-06-29T13:49:23.265Z,5.37
2018-06-29T13:51:51.382Z,5.50
2018-06-29T13:54:19.515Z,5.10
2018-06-29T13:56:47.669Z,5.30
2018-06-29T13:59:15.798Z,5.72
2018-06-29T14:01:43.933Z,5.37
2018-06-29T14:04:12.057Z,5.20
2018-06-29T14:06:40.187Z,5.58
2018-06-29T14:09:08.314Z,5.62
2018-06-29T14:11:36.477Z,5.28
2018-06-29T14:14:04.607Z,5.00
2018-06-29T14:16:32.784Z,5.20
2018-06-29T14:19:00.889Z,5.50
2018-06-29T14:21:29.035Z,4.58
2018-06-29T14:23:57.150Z,5.33
2018-06-29T14:26:25.287Z,5.22
2018-06-29T14:28:53.504Z,4.80
2018-06-29T14:31:21.634Z,5.37
2018-06-29T14:33:49.768Z,5.05
2018-06-29T14:36:17.904Z,5.53
2018-06-29T14:38:46.051Z,5.90
2018-06-29T14:41:14.164Z,5.75
2018-06-29T14:43:42.290Z,5.92
2018-06-29T14:48:44.849Z,4.95
2018-06-29T14:51:13.099Z,5.17
2018-06-29T14:53:41.194Z,5.28
2018-06-29T14:56:09.295Z,4.97
2018-06-29T14:58:37.657Z,4.83
2018-06-29T15:01:05.800Z,4.62
2018-06-29T15:03:33.890Z,5.08
2018-06-29T15:06:01.994Z,4.65
2018-06-29T15:08:30.106Z,4.40
2018-06-29T15:10:58.230Z,4.60
2018-06-29T15:13:26.494Z,5.10
2018-06-29T15:15:54.703Z,4.70
2018-06-29T15:18:22.725Z,5.05
2018-06-29T15:20:50.838Z,4.92
2018-06-29T15:23:18.961Z,4.87
2018-06-29T15:25:47.066Z,4.80
2018-06-29T15:28:15.215Z,5.35
2018-06-29T15:30:43.374Z,5.10
2018-06-29T15:33:11.482Z,5.30
2018-06-29T15:35:39.622Z,5.33
2018-06-29T15:38:07.737Z,5.60
2018-06-29T15:40:35.868Z,5.00
2018-06-29T15:43:03.981Z,5.25
2018-06-29T15:45:32.103Z,5.30
2018-06-29T15:48:00.234Z,5.00
2018-06-29T15:50:28.343Z,5.42
2018-06-29T15:52:56.471Z,5.15
2018-06-29T15:55:24.597Z,5.40
2018-06-29T16:00:27.157Z,5.03
2018-06-29T16:02:55.281Z,5.33
2018-06-29T16:05:23.419Z,5.22
2018-06-29T16:07:51.538Z,5.30
2018-06-29T16:10:19.645Z,5.20
2018-06-29T16:12:47.724Z,5.20
2018-06-29T16:15:15.838Z,5.40
2018-06-29T16:17:43.945Z,5.42
2018-06-29T16:20:12.070Z,6.00
2018-06-29T16:22:40.186Z,5.50
2018-06-29T16:25:08.349Z,5.45
2018-06-29T16:27:36.464Z,5.17
2018-06-29T16:30:05.095Z,5.12
2018-06-29T16:32:33.188Z,5.10
2018-06-29T16:35:01.310Z,4.80
2018-06-29T16:37:29.415Z,5.33
2018-06-29T16:39:57.527Z,5.05
2018-06-29T16:42:25.695Z,5.35
2018-06-29T16:44:53.806Z,5.10
2018-06-29T16:47:21.898Z,5.17
2018-06-29T16:49:50.039Z,5.70
2018-06-29T16:52:18.136Z,5.47
2018-06-29T16:54:46.245Z,5.30
2018-06-29T16:57:14.359Z,5.40
2018-06-29T16:59:42.461Z,5.58
2018-06-29T17:02:10.661Z,5.22
2018-06-29T17:04:38.803Z,5.00
2018-06-29T17:07:06.986Z,4.75
2018-06-29T17:09:35.097Z,5.20
2018-06-29T17:12:03.189Z,4.67
2018-06-29T17:14:31.288Z,4.25
2018-06-29T17:16:59.378Z,4.83
2018-06-29T17:19:27.491Z,4.60
2018-06-29T17:21:55.608Z,5.08
2018-06-29T17:24:23.790Z,5.30
2018-06-29T17:26:52.014Z,5.30
2018-06-29T17:29:20.163Z,5.25
2018-06-29T17:31:48.247Z,5.60
2018-06-29T17:34:16.448Z,6.00
2018-06-29T17:36:44.479Z,5.37
2018-06-29T17:39:12.643Z,5.70
2018-06-29T17:41:40.754Z,5.80
2018-06-29T17:44:09.000Z,6.00
2018-06-29T17:46:37.440Z,5.92
2018-06-29T17:49:05.554Z,6.25
2018-06-29T17:51:33.724Z,5.92
2018-06-29T17:54:01.826Z,6.08
2018-06-29T17:56:29.939Z,5.37
2018-06-29T17:58:58.034Z,5.70
2018-06-29T18:01:26.139Z,6.05
2018-06-29T18:03:54.249Z,5.70
2018-06-29T18:06:22.363Z,6.12
2018-06-29T18:08:50.719Z,5.40
2018-06-29T18:11:18.998Z,6.25
2018-06-29T18:13:47.093Z,6.03
2018-06-29T18:16:15.266Z,6.50
2018-06-29T18:18:43.289Z,5.92
2018-06-29T18:21:11.421Z,6.25
2018-06-29T18:23:39.617Z,5.62
2018-06-29T18:26:07.734Z,6.30
2018-06-29T18:28:35.929Z,6.23
2018-06-29T18:31:04.059Z,7.78
2018-06-29T18:33:32.165Z,8.38
2018-06-29T18:36:00.282Z,8.25
2018-06-29T18:38:28.474Z,6.92
2018-06-29T18:40:57.269Z,6.08
2018-06-29T18:43:25.805Z,7.30
2018-06-29T18:45:54.019Z,7.30
2018-06-29T18:48:22.369Z,6.45
2018-06-29T18:50:50.470Z,6.40
2018-06-29T18:53:18.654Z,7.47
2018-06-29T18:55:46.826Z,7.10
2018-06-29T18:58:14.941Z,7.10
2018-06-29T19:00:43.141Z,7.50
2018-06-29T19:03:11.246Z,10.57
2018-06-29T19:05:39.441Z,9.10
2018-06-29T19:08:07.614Z,8.03
2018-06-29T19:10:35.810Z,6.90
2018-06-29T19:13:03.958Z,6.47
2018-06-29T19:15:32.098Z,6.87
2018-06-29T19:18:00.311Z,6.80
2018-06-29T19:20:28.469Z,7.43
2018-06-29T19:22:56.585Z,7.37
2018-06-29T19:25:24.751Z,6.73
2018-06-29T19:27:53.058Z,6.90
2018-06-29T19:30:21.168Z,6.60
2018-06-29T19:32:49.310Z,7.43
2018-06-29T19:35:17.579Z,7.27
2018-06-29T19:37:45.763Z,6.60
2018-06-29T19:40:13.990Z,8.13
2018-06-29T19:42:42.123Z,9.60
2018-06-29T19:45:10.258Z,8.70
2018-06-29T19:47:38.395Z,8.37
2018-06-29T19:50:06.536Z,8.60
2018-06-29T19:52:34.766Z,8.73
2018-06-29T19:55:02.884Z,9.50
2018-06-29T19:57:30.992Z,9.70
2018-06-29T19:59:59.120Z,9.40
2018-06-29T20:02:27.686Z,9.30
2018-06-29T20:04:57.148Z,9.53
2018-06-29T20:07:25.662Z,9.67
2018-06-29T20:09:53.810Z,9.50
2018-06-29T20:12:21.941Z,9.50
2018-06-29T20:14:50.061Z,12.97
2018-06-29T20:17:18.200Z,11.57
2018-06-29T20:19:46.570Z,11.67
2018-06-29T20:22:14.698Z,10.83
2018-06-29T20:24:42.822Z,10.40
2018-06-29T20:27:11.004Z,10.53
2018-06-29T20:29:39.110Z,9.40
2018-06-29T20:32:07.293Z,11.90
2018-06-29T20:34:35.406Z,12.70
2018-06-29T20:37:03.554Z,12.07
2018-06-29T20:39:31.686Z,12.03
2018-06-29T20:41:59.834Z,10.70
2018-06-29T20:44:27.943Z,10.50
2018-06-29T20:46:56.093Z,9.23
2018-06-29T20:49:30.678Z,9.50
2018-06-29T20:51:58.817Z,10.90
2018-06-29T20:54:26.950Z,12.60
2018-06-29T20:56:55.066Z,14.37
2018-06-29T20:59:23.194Z,14.03
2018-06-29T21:01:51.341Z,13.37
2018-06-29T21:04:19.472Z,11.50
2018-06-29T21:06:47.610Z,11.83
2018-06-29T21:09:15.744Z,10.50
2018-06-29T21:11:44.501Z,10.80
2018-06-29T21:14:13.030Z,9.77
2018-06-29T21:16:41.154Z,11.20
2018-06-29T21:19:09.675Z,13.20
2018-06-29T21:21:37.833Z,13.03
2018-06-29T21:24:05.965Z,12.93
2018-06-29T21:26:34.167Z,13.23
2018-06-29T21:29:02.283Z,13.30
2018-06-29T21:31:30.638Z,12.00
2018-06-29T21:33:58.837Z,12.33
2018-06-29T21:36:27.064Z,16.20
2018-06-29T21:38:55.266Z,16.07
2018-06-29T21:41:23.382Z,14.30
2018-06-29T21:43:51.497Z,13.03
2018-06-29T21:46:19.607Z,13.63
2018-06-29T21:48:47.810Z,15.87
2018-06-29T21:51:15.931Z,18.13
2018-06-29T21:53:44.043Z,21.93
2018-06-29T21:56:12.155Z,21.10
2018-06-29T21:58:40.390Z,21.00
2018-06-29T22:01:08.503Z,18.37
2018-06-29T22:03:36.602Z,16.13
2018-06-29T22:06:04.734Z,14.33
2018-06-29T22:08:32.843Z,13.10
2018-06-29T22:11:00.955Z,16.53
2018-06-29T22:13:29.062Z,16.50
2018-06-29T22:15:57.178Z,15.97
2018-06-29T22:18:25.277Z,17.00
2018-06-29T22:20:53.422Z,17.80
2018-06-29T22:23:21.562Z,17.17
2018-06-29T22:25:49.668Z,16.77
2018-06-29T22:28:17.794Z,16.33
2018-06-29T22:30:46.010Z,16.80
2018-06-29T22:33:14.115Z,16.37
2018-06-29T22:35:42.223Z,17.53
2018-06-29T22:38:10.332Z,17.87
2018-06-29T22:40:38.457Z,16.60
2018-06-29T22:43:06.582Z,16.77
2018-06-29T22:45:34.671Z,15.87
2018-06-29T22:48:02.786Z,16.83
2018-06-29T22:50:30.923Z,16.20
2018-06-29T22:52:59.043Z,15.50
2018-06-29T22:55:27.154Z,16.63
2018-06-29T22:57:55.274Z,16.83
2018-06-29T23:00:23.505Z,16.43
2018-06-29T23:02:52.090Z,15.87
2018-06-29T23:05:20.190Z,15.23
2018-06-29T23:07:48.333Z,16.87
2018-06-29T23:10:16.465Z,17.07
2018-06-29T23:12:44.681Z,16.70
2018-06-29T23:15:12.802Z,15.73
2018-06-29T23:17:40.901Z,15.63
2018-06-29T23:20:09.025Z,16.90
2018-06-29T23:22:37.126Z,16.90
2018-06-29T23:25:05.245Z,16.17
2018-06-29T23:27:33.354Z,16.10
2018-06-29T23:30:01.470Z,15.43
2018-06-29T23:32:29.595Z,16.43
2018-06-29T23:34:57.723Z,15.33
2018-06-29T23:37:25.857Z,15.63
2018-06-29T23:39:53.961Z,16.17
2018-06-29T23:42:22.062Z,16.53
2018-06-29T23:44:50.180Z,16.10
2018-06-29T23:47:18.282Z,15.17
2018-06-29T23:49:46.429Z,16.33
2018-06-29T23:52:14.625Z,15.40
2018-06-29T23:54:42.745Z,16.43
2018-06-29T23:57:10.858Z,16.13
2018-06-29T23:59:38.958Z,15.43
